sensor_id;sensor_type;location;lat;lon;timestamp;P1;durP1;ratioP1;P2;durP2;ratioP2
5684;SDS011;2865;53.114;9.130;2024-01-30T00:01:22;10.67;;;7.83;;
5684;SDS011;2865;53.114;9.130;2024-01-30T00:03:48;8.80;;;8.00;;
5684;SDS011;2865;53.114;9.130;2024-01-30T00:06:13;9.13;;;7.83;;
5684;SDS011;2865;53.114;9.130;2024-01-30T00:08:39;9.87;;;8.47;;
5684;SDS011;2865;53.114;9.130;2024-01-30T00:11:04;9.33;;;8.40;;
5684;SDS011;2865;53.114;9.130;2024-01-30T00:13:30;8.83;;;7.40;;
5684;SDS011;2865;53.114;9.130;2024-01-30T00:15:55;9.00;;;7.97;;
5684;SDS011;2865;53.114;9.130;2024-01-30T00:18:21;10.40;;;7.50;;
5684;SDS011;2865;53.114;9.130;2024-01-30T00:20:46;11.33;;;8.70;;
5684;SDS011;2865;53.114;9.130;2024-01-30T00:23:12;8.90;;;8.00;;
5684;SDS011;2865;53.114;9.130;2024-01-30T00:25:37;8.77;;;7.63;;
5684;SDS011;2865;53.114;9.130;2024-01-30T00:28:03;9.50;;;8.50;;
5684;SDS011;2865;53.114;9.130;2024-01-30T00:30:28;9.30;;;8.10;;
5684;SDS011;2865;53.114;9.130;2024-01-30T00:32:54;11.37;;;8.77;;
5684;SDS011;2865;53.114;9.130;2024-01-30T00:35:19;8.37;;;7.37;;
5684;SDS011;2865;53.114;9.130;2024-01-30T00:37:45;9.80;;;8.63;;
5684;SDS011;2865;53.114;9.130;2024-01-30T00:40:10;8.13;;;7.33;;
5684;SDS011;2865;53.114;9.130;2024-01-30T00:42:35;11.93;;;7.00;;
5684;SDS011;2865;53.114;9.130;2024-01-30T00:45:01;10.37;;;8.27;;
5684;SDS011;2865;53.114;9.130;2024-01-30T00:47:26;8.67;;;7.93;;
5684;SDS011;2865;53.114;9.130;2024-01-30T00:49:51;8.43;;;7.10;;
5684;SDS011;2865;53.114;9.130;2024-01-30T00:52:17;8.13;;;6.90;;
5684;SDS011;2865;53.114;9.130;2024-01-30T00:54:42;10.33;;;9.00;;
5684;SDS011;2865;53.114;9.130;2024-01-30T00:57:08;8.70;;;7.80;;
5684;SDS011;2865;53.114;9.130;2024-01-30T00:59:33;9.77;;;8.77;;
5684;SDS011;2865;53.114;9.130;2024-01-30T01:01:59;8.40;;;7.60;;
5684;SDS011;2865;53.114;9.130;2024-01-30T01:04:24;9.00;;;8.10;;
5684;SDS011;2865;53.114;9.130;2024-01-30T01:06:50;9.40;;;8.40;;
5684;SDS011;2865;53.114;9.130;2024-01-30T01:09:15;11.53;;;8.30;;
5684;SDS011;2865;53.114;9.130;2024-01-30T01:11:40;10.33;;;7.83;;
5684;SDS011;2865;53.114;9.130;2024-01-30T01:14:06;18.10;;;8.50;;
5684;SDS011;2865;53.114;9.130;2024-01-30T01:16:32;8.40;;;7.57;;
5684;SDS011;2865;53.114;9.130;2024-01-30T01:18:56;9.93;;;8.63;;
5684;SDS011;2865;53.114;9.130;2024-01-30T01:21:22;9.87;;;7.90;;
5684;SDS011;2865;53.114;9.130;2024-01-30T01:23:48;11.50;;;8.60;;
5684;SDS011;2865;53.114;9.130;2024-01-30T01:26:13;11.57;;;9.07;;
5684;SDS011;2865;53.114;9.130;2024-01-30T01:28:40;10.27;;;7.80;;
5684;SDS011;2865;53.114;9.130;2024-01-30T01:31:04;9.40;;;8.50;;
5684;SDS011;2865;53.114;9.130;2024-01-30T01:33:31;10.67;;;9.27;;
5684;SDS011;2865;53.114;9.130;2024-01-30T01:35:56;9.73;;;8.23;;
5684;SDS011;2865;53.114;9.130;2024-01-30T01:38:21;16.00;;;9.33;;
5684;SDS011;2865;53.114;9.130;2024-01-30T01:40:47;11.33;;;8.33;;
5684;SDS011;2865;53.114;9.130;2024-01-30T01:43:12;12.80;;;8.40;;
5684;SDS011;2865;53.114;9.130;2024-01-30T01:45:37;9.90;;;8.40;;
5684;SDS011;2865;53.114;9.130;2024-01-30T01:48:03;12.57;;;9.50;;
5684;SDS011;2865;53.114;9.130;2024-01-30T01:50:29;11.70;;;9.53;;
5684;SDS011;2865;53.114;9.130;2024-01-30T01:52:54;9.33;;;8.30;;
5684;SDS011;2865;53.114;9.130;2024-01-30T01:55:20;11.90;;;9.13;;
5684;SDS011;2865;53.114;9.130;2024-01-30T01:57:45;12.13;;;9.73;;
5684;SDS011;2865;53.114;9.130;2024-01-30T02:00:10;15.87;;;9.30;;
5684;SDS011;2865;53.114;9.130;2024-01-30T02:02:37;12.77;;;9.70;;
5684;SDS011;2865;53.114;9.130;2024-01-30T02:05:02;13.67;;;9.37;;
5684;SDS011;2865;53.114;9.130;2024-01-30T02:07:28;10.07;;;9.07;;
5684;SDS011;2865;53.114;9.130;2024-01-30T02:09:54;11.77;;;8.80;;
5684;SDS011;2865;53.114;9.130;2024-01-30T02:12:19;14.97;;;10.10;;
5684;SDS011;2865;53.114;9.130;2024-01-30T02:14:45;12.90;;;9.47;;
5684;SDS011;2865;53.114;9.130;2024-01-30T02:17:10;13.03;;;9.10;;
5684;SDS011;2865;53.114;9.130;2024-01-30T02:19:35;11.20;;;9.40;;
5684;SDS011;2865;53.114;9.130;2024-01-30T02:22:00;12.53;;;10.40;;
5684;SDS011;2865;53.114;9.130;2024-01-30T02:24:26;11.87;;;9.77;;
5684;SDS011;2865;53.114;9.130;2024-01-30T02:26:51;10.70;;;9.30;;
5684;SDS011;2865;53.114;9.130;2024-01-30T02:29:16;12.97;;;9.43;;
5684;SDS011;2865;53.114;9.130;2024-01-30T02:31:42;14.53;;;9.67;;
5684;SDS011;2865;53.114;9.130;2024-01-30T02:34:07;11.37;;;10.17;;
5684;SDS011;2865;53.114;9.130;2024-01-30T02:36:33;11.93;;;9.90;;
5684;SDS011;2865;53.114;9.130;2024-01-30T02:38:58;9.70;;;8.70;;
5684;SDS011;2865;53.114;9.130;2024-01-30T02:41:23;11.10;;;8.87;;
5684;SDS011;2865;53.114;9.130;2024-01-30T02:43:49;11.30;;;9.50;;
5684;SDS011;2865;53.114;9.130;2024-01-30T02:46:14;9.97;;;8.93;;
5684;SDS011;2865;53.114;9.130;2024-01-30T02:48:39;10.27;;;9.27;;
5684;SDS011;2865;53.114;9.130;2024-01-30T02:51:05;10.70;;;9.47;;
5684;SDS011;2865;53.114;9.130;2024-01-30T02:53:30;12.90;;;9.73;;
5684;SDS011;2865;53.114;9.130;2024-01-30T02:55:56;14.97;;;9.57;;
5684;SDS011;2865;53.114;9.130;2024-01-30T02:58:21;13.33;;;10.80;;
5684;SDS011;2865;53.114;9.130;2024-01-30T03:00:46;11.67;;;9.33;;
5684;SDS011;2865;53.114;9.130;2024-01-30T03:03:12;13.40;;;10.93;;
5684;SDS011;2865;53.114;9.130;2024-01-30T03:05:37;10.77;;;9.73;;
5684;SDS011;2865;53.114;9.130;2024-01-30T03:08:03;13.03;;;10.07;;
5684;SDS011;2865;53.114;9.130;2024-01-30T03:10:29;11.50;;;9.17;;
5684;SDS011;2865;53.114;9.130;2024-01-30T03:12:54;11.90;;;10.43;;
5684;SDS011;2865;53.114;9.130;2024-01-30T03:15:19;12.80;;;9.33;;
5684;SDS011;2865;53.114;9.130;2024-01-30T03:17:45;14.00;;;10.77;;
5684;SDS011;2865;53.114;9.130;2024-01-30T03:20:10;12.93;;;9.77;;
5684;SDS011;2865;53.114;9.130;2024-01-30T03:22:36;17.17;;;10.23;;
5684;SDS011;2865;53.114;9.130;2024-01-30T03:25:01;12.60;;;10.37;;
5684;SDS011;2865;53.114;9.130;2024-01-30T03:27:27;16.50;;;9.77;;
5684;SDS011;2865;53.114;9.130;2024-01-30T03:29:52;11.13;;;9.50;;
5684;SDS011;2865;53.114;9.130;2024-01-30T03:32:18;14.43;;;10.00;;
5684;SDS011;2865;53.114;9.130;2024-01-30T03:34:43;11.93;;;10.20;;
5684;SDS011;2865;53.114;9.130;2024-01-30T03:37:08;11.20;;;10.10;;
5684;SDS011;2865;53.114;9.130;2024-01-30T03:39:34;12.90;;;10.23;;
5684;SDS011;2865;53.114;9.130;2024-01-30T03:41:59;11.73;;;9.80;;
5684;SDS011;2865;53.114;9.130;2024-01-30T03:44:25;10.57;;;9.47;;
5684;SDS011;2865;53.114;9.130;2024-01-30T03:46:50;13.57;;;10.70;;
5684;SDS011;2865;53.114;9.130;2024-01-30T03:49:16;13.50;;;10.57;;
5684;SDS011;2865;53.114;9.130;2024-01-30T03:51:41;12.63;;;11.37;;
5684;SDS011;2865;53.114;9.130;2024-01-30T03:54:07;12.57;;;10.87;;
5684;SDS011;2865;53.114;9.130;2024-01-30T03:56:32;12.87;;;10.40;;
5684;SDS011;2865;53.114;9.130;2024-01-30T03:58:58;15.73;;;11.63;;
5684;SDS011;2865;53.114;9.130;2024-01-30T04:01:23;17.37;;;11.63;;
5684;SDS011;2865;53.114;9.130;2024-01-30T04:03:48;13.87;;;10.90;;
5684;SDS011;2865;53.114;9.130;2024-01-30T04:06:14;14.03;;;10.43;;
5684;SDS011;2865;53.114;9.130;2024-01-30T04:08:39;13.00;;;9.77;;
5684;SDS011;2865;53.114;9.130;2024-01-30T04:11:05;16.30;;;11.13;;
5684;SDS011;2865;53.114;9.130;2024-01-30T04:13:31;10.83;;;9.43;;
5684;SDS011;2865;53.114;9.130;2024-01-30T04:15:56;12.37;;;10.73;;
5684;SDS011;2865;53.114;9.130;2024-01-30T04:18:22;14.27;;;11.33;;
5684;SDS011;2865;53.114;9.130;2024-01-30T04:20:47;11.77;;;10.23;;
5684;SDS011;2865;53.114;9.130;2024-01-30T04:23:13;11.23;;;9.47;;
5684;SDS011;2865;53.114;9.130;2024-01-30T04:25:38;15.27;;;11.87;;
5684;SDS011;2865;53.114;9.130;2024-01-30T04:28:04;11.50;;;10.00;;
5684;SDS011;2865;53.114;9.130;2024-01-30T04:30:29;12.57;;;10.37;;
5684;SDS011;2865;53.114;9.130;2024-01-30T04:32:55;14.53;;;11.27;;
5684;SDS011;2865;53.114;9.130;2024-01-30T04:35:20;14.53;;;10.60;;
5684;SDS011;2865;53.114;9.130;2024-01-30T04:37:46;15.20;;;10.87;;
5684;SDS011;2865;53.114;9.130;2024-01-30T04:40:11;11.00;;;9.90;;
5684;SDS011;2865;53.114;9.130;2024-01-30T04:42:37;13.90;;;10.93;;
5684;SDS011;2865;53.114;9.130;2024-01-30T04:45:03;14.20;;;12.00;;
5684;SDS011;2865;53.114;9.130;2024-01-30T04:47:29;13.23;;;10.03;;
5684;SDS011;2865;53.114;9.130;2024-01-30T04:49:54;14.00;;;11.30;;
5684;SDS011;2865;53.114;9.130;2024-01-30T04:52:20;15.80;;;11.90;;
5684;SDS011;2865;53.114;9.130;2024-01-30T04:54:45;17.73;;;11.30;;
5684;SDS011;2865;53.114;9.130;2024-01-30T04:57:10;15.43;;;11.50;;
5684;SDS011;2865;53.114;9.130;2024-01-30T04:59:36;14.90;;;11.90;;
5684;SDS011;2865;53.114;9.130;2024-01-30T05:02:01;13.67;;;10.93;;
5684;SDS011;2865;53.114;9.130;2024-01-30T05:04:26;11.90;;;10.50;;
5684;SDS011;2865;53.114;9.130;2024-01-30T05:06:52;12.83;;;11.07;;
5684;SDS011;2865;53.114;9.130;2024-01-30T05:09:17;17.80;;;11.50;;
5684;SDS011;2865;53.114;9.130;2024-01-30T05:11:43;17.20;;;11.23;;
5684;SDS011;2865;53.114;9.130;2024-01-30T05:14:08;17.17;;;11.60;;
5684;SDS011;2865;53.114;9.130;2024-01-30T05:16:34;17.53;;;10.80;;
5684;SDS011;2865;53.114;9.130;2024-01-30T05:18:59;12.67;;;10.47;;
5684;SDS011;2865;53.114;9.130;2024-01-30T05:21:24;13.57;;;11.70;;
5684;SDS011;2865;53.114;9.130;2024-01-30T05:23:50;13.93;;;11.40;;
5684;SDS011;2865;53.114;9.130;2024-01-30T05:26:15;16.53;;;11.60;;
5684;SDS011;2865;53.114;9.130;2024-01-30T05:28:40;14.40;;;12.27;;
5684;SDS011;2865;53.114;9.130;2024-01-30T05:31:06;15.97;;;11.90;;
5684;SDS011;2865;53.114;9.130;2024-01-30T05:33:31;15.17;;;11.63;;
5684;SDS011;2865;53.114;9.130;2024-01-30T05:35:56;12.63;;;11.30;;
5684;SDS011;2865;53.114;9.130;2024-01-30T05:38:22;16.77;;;12.13;;
5684;SDS011;2865;53.114;9.130;2024-01-30T05:40:47;15.30;;;12.17;;
5684;SDS011;2865;53.114;9.130;2024-01-30T05:43:13;16.07;;;12.03;;
5684;SDS011;2865;53.114;9.130;2024-01-30T05:45:38;14.13;;;11.23;;
5684;SDS011;2865;53.114;9.130;2024-01-30T05:48:04;13.63;;;11.10;;
5684;SDS011;2865;53.114;9.130;2024-01-30T05:50:29;20.00;;;11.83;;
5684;SDS011;2865;53.114;9.130;2024-01-30T05:52:55;17.53;;;11.80;;
5684;SDS011;2865;53.114;9.130;2024-01-30T05:55:20;13.53;;;11.20;;
5684;SDS011;2865;53.114;9.130;2024-01-30T05:57:46;17.43;;;11.50;;
5684;SDS011;2865;53.114;9.130;2024-01-30T06:00:11;14.30;;;11.50;;
5684;SDS011;2865;53.114;9.130;2024-01-30T06:02:37;15.50;;;12.10;;
5684;SDS011;2865;53.114;9.130;2024-01-30T06:05:03;14.70;;;11.13;;
5684;SDS011;2865;53.114;9.130;2024-01-30T06:07:29;14.43;;;11.40;;
5684;SDS011;2865;53.114;9.130;2024-01-30T06:09:54;15.63;;;11.37;;
5684;SDS011;2865;53.114;9.130;2024-01-30T06:12:19;12.53;;;10.90;;
5684;SDS011;2865;53.114;9.130;2024-01-30T06:14:45;15.63;;;11.07;;
5684;SDS011;2865;53.114;9.130;2024-01-30T06:17:10;17.50;;;12.33;;
5684;SDS011;2865;53.114;9.130;2024-01-30T06:19:35;13.43;;;10.70;;
5684;SDS011;2865;53.114;9.130;2024-01-30T06:22:02;18.10;;;12.10;;
5684;SDS011;2865;53.114;9.130;2024-01-30T06:24:28;15.50;;;11.67;;
5684;SDS011;2865;53.114;9.130;2024-01-30T06:26:53;15.33;;;11.67;;
5684;SDS011;2865;53.114;9.130;2024-01-30T06:29:18;16.53;;;12.90;;
5684;SDS011;2865;53.114;9.130;2024-01-30T06:31:44;13.53;;;10.30;;
5684;SDS011;2865;53.114;9.130;2024-01-30T06:34:09;12.80;;;10.83;;
5684;SDS011;2865;53.114;9.130;2024-01-30T06:36:34;12.43;;;11.10;;
5684;SDS011;2865;53.114;9.130;2024-01-30T06:39:00;15.07;;;11.77;;
5684;SDS011;2865;53.114;9.130;2024-01-30T06:41:25;13.17;;;11.40;;
5684;SDS011;2865;53.114;9.130;2024-01-30T06:43:51;13.87;;;10.80;;
5684;SDS011;2865;53.114;9.130;2024-01-30T06:46:16;13.77;;;11.30;;
5684;SDS011;2865;53.114;9.130;2024-01-30T06:48:41;15.63;;;12.47;;
5684;SDS011;2865;53.114;9.130;2024-01-30T06:51:07;15.70;;;11.60;;
5684;SDS011;2865;53.114;9.130;2024-01-30T06:53:32;17.77;;;10.90;;
5684;SDS011;2865;53.114;9.130;2024-01-30T06:55:57;15.77;;;11.33;;
5684;SDS011;2865;53.114;9.130;2024-01-30T06:58:23;15.30;;;11.80;;
5684;SDS011;2865;53.114;9.130;2024-01-30T07:00:48;15.93;;;11.73;;
5684;SDS011;2865;53.114;9.130;2024-01-30T07:03:13;18.43;;;11.80;;
5684;SDS011;2865;53.114;9.130;2024-01-30T07:05:39;23.57;;;12.47;;
5684;SDS011;2865;53.114;9.130;2024-01-30T07:08:04;16.63;;;11.80;;
5684;SDS011;2865;53.114;9.130;2024-01-30T07:10:30;16.30;;;11.90;;
5684;SDS011;2865;53.114;9.130;2024-01-30T07:12:55;17.10;;;11.30;;
5684;SDS011;2865;53.114;9.130;2024-01-30T07:15:21;14.20;;;11.90;;
5684;SDS011;2865;53.114;9.130;2024-01-30T07:17:46;22.37;;;11.83;;
5684;SDS011;2865;53.114;9.130;2024-01-30T07:20:11;14.90;;;11.60;;
5684;SDS011;2865;53.114;9.130;2024-01-30T07:22:37;12.93;;;11.30;;
5684;SDS011;2865;53.114;9.130;2024-01-30T07:25:03;14.27;;;11.30;;
5684;SDS011;2865;53.114;9.130;2024-01-30T07:27:29;17.67;;;12.47;;
5684;SDS011;2865;53.114;9.130;2024-01-30T07:29:54;18.03;;;12.20;;
5684;SDS011;2865;53.114;9.130;2024-01-30T07:32:19;20.20;;;12.73;;
5684;SDS011;2865;53.114;9.130;2024-01-30T07:34:45;14.03;;;11.30;;
5684;SDS011;2865;53.114;9.130;2024-01-30T07:37:10;16.17;;;11.60;;
5684;SDS011;2865;53.114;9.130;2024-01-30T07:39:36;14.90;;;12.37;;
5684;SDS011;2865;53.114;9.130;2024-01-30T07:42:01;17.03;;;13.27;;
5684;SDS011;2865;53.114;9.130;2024-01-30T07:44:26;11.83;;;10.63;;
5684;SDS011;2865;53.114;9.130;2024-01-30T07:46:52;18.70;;;12.90;;
5684;SDS011;2865;53.114;9.130;2024-01-30T07:49:17;15.47;;;12.60;;
5684;SDS011;2865;53.114;9.130;2024-01-30T07:51:42;19.03;;;12.73;;
5684;SDS011;2865;53.114;9.130;2024-01-30T07:54:08;19.23;;;12.43;;
5684;SDS011;2865;53.114;9.130;2024-01-30T07:56:33;18.40;;;12.53;;
5684;SDS011;2865;53.114;9.130;2024-01-30T07:58:59;18.87;;;13.17;;
5684;SDS011;2865;53.114;9.130;2024-01-30T08:01:24;17.23;;;12.90;;
5684;SDS011;2865;53.114;9.130;2024-01-30T08:03:50;16.60;;;13.30;;
5684;SDS011;2865;53.114;9.130;2024-01-30T08:06:15;19.37;;;13.07;;
5684;SDS011;2865;53.114;9.130;2024-01-30T08:08:40;20.90;;;12.90;;
5684;SDS011;2865;53.114;9.130;2024-01-30T08:11:06;14.80;;;12.77;;
5684;SDS011;2865;53.114;9.130;2024-01-30T08:13:31;17.63;;;14.07;;
5684;SDS011;2865;53.114;9.130;2024-01-30T08:15:56;19.53;;;13.67;;
5684;SDS011;2865;53.114;9.130;2024-01-30T08:18:22;17.10;;;13.13;;
5684;SDS011;2865;53.114;9.130;2024-01-30T08:20:47;16.33;;;13.47;;
5684;SDS011;2865;53.114;9.130;2024-01-30T08:23:13;18.93;;;13.20;;
5684;SDS011;2865;53.114;9.130;2024-01-30T08:25:38;16.37;;;12.80;;
5684;SDS011;2865;53.114;9.130;2024-01-30T08:28:04;15.20;;;11.80;;
5684;SDS011;2865;53.114;9.130;2024-01-30T08:30:29;16.73;;;11.90;;
5684;SDS011;2865;53.114;9.130;2024-01-30T08:32:54;14.07;;;11.83;;
5684;SDS011;2865;53.114;9.130;2024-01-30T08:35:20;19.30;;;13.67;;
5684;SDS011;2865;53.114;9.130;2024-01-30T08:37:45;18.80;;;12.97;;
5684;SDS011;2865;53.114;9.130;2024-01-30T08:40:10;15.17;;;11.70;;
5684;SDS011;2865;53.114;9.130;2024-01-30T08:42:36;16.13;;;12.67;;
5684;SDS011;2865;53.114;9.130;2024-01-30T08:45:01;13.57;;;11.50;;
5684;SDS011;2865;53.114;9.130;2024-01-30T08:47:27;16.57;;;11.43;;
5684;SDS011;2865;53.114;9.130;2024-01-30T08:49:53;16.77;;;12.73;;
5684;SDS011;2865;53.114;9.130;2024-01-30T08:52:18;13.13;;;10.70;;
5684;SDS011;2865;53.114;9.130;2024-01-30T08:54:43;13.70;;;11.60;;
5684;SDS011;2865;53.114;9.130;2024-01-30T08:57:09;15.30;;;11.70;;
5684;SDS011;2865;53.114;9.130;2024-01-30T08:59:34;16.40;;;12.03;;
5684;SDS011;2865;53.114;9.130;2024-01-30T09:02:00;18.13;;;11.70;;
5684;SDS011;2865;53.114;9.130;2024-01-30T09:04:25;20.13;;;12.17;;
5684;SDS011;2865;53.114;9.130;2024-01-30T09:06:50;13.30;;;11.83;;
5684;SDS011;2865;53.114;9.130;2024-01-30T09:09:16;14.20;;;11.87;;
5684;SDS011;2865;53.114;9.130;2024-01-30T09:11:41;13.20;;;11.47;;
5684;SDS011;2865;53.114;9.130;2024-01-30T09:14:07;16.63;;;12.23;;
5684;SDS011;2865;53.114;9.130;2024-01-30T09:16:32;15.53;;;10.97;;
5684;SDS011;2865;53.114;9.130;2024-01-30T09:18:57;14.70;;;11.73;;
5684;SDS011;2865;53.114;9.130;2024-01-30T09:21:23;19.60;;;11.93;;
5684;SDS011;2865;53.114;9.130;2024-01-30T09:23:48;13.80;;;11.67;;
5684;SDS011;2865;53.114;9.130;2024-01-30T09:26:14;15.00;;;11.47;;
5684;SDS011;2865;53.114;9.130;2024-01-30T09:28:39;15.50;;;11.20;;
5684;SDS011;2865;53.114;9.130;2024-01-30T09:31:09;15.13;;;11.50;;
5684;SDS011;2865;53.114;9.130;2024-01-30T09:33:30;14.90;;;10.83;;
5684;SDS011;2865;53.114;9.130;2024-01-30T09:35:55;15.50;;;11.03;;
5684;SDS011;2865;53.114;9.130;2024-01-30T09:38:20;16.47;;;11.50;;
5684;SDS011;2865;53.114;9.130;2024-01-30T09:40:48;14.53;;;11.27;;
5684;SDS011;2865;53.114;9.130;2024-01-30T09:43:13;11.30;;;10.10;;
5684;SDS011;2865;53.114;9.130;2024-01-30T09:45:37;21.03;;;11.60;;
5684;SDS011;2865;53.114;9.130;2024-01-30T09:48:03;13.27;;;10.07;;
5684;SDS011;2865;53.114;9.130;2024-01-30T09:50:28;15.73;;;10.83;;
5684;SDS011;2865;53.114;9.130;2024-01-30T09:52:54;18.73;;;11.87;;
5684;SDS011;2865;53.114;9.130;2024-01-30T09:55:19;14.67;;;10.97;;
5684;SDS011;2865;53.114;9.130;2024-01-30T09:57:44;15.03;;;10.87;;
5684;SDS011;2865;53.114;9.130;2024-01-30T10:00:10;13.23;;;10.90;;
5684;SDS011;2865;53.114;9.130;2024-01-30T10:02:38;15.37;;;11.17;;
5684;SDS011;2865;53.114;9.130;2024-01-30T10:05:02;16.90;;;11.50;;
5684;SDS011;2865;53.114;9.130;2024-01-30T10:07:28;17.80;;;10.50;;
5684;SDS011;2865;53.114;9.130;2024-01-30T10:09:53;13.30;;;10.37;;
5684;SDS011;2865;53.114;9.130;2024-01-30T10:12:19;22.37;;;11.03;;
5684;SDS011;2865;53.114;9.130;2024-01-30T10:14:44;18.33;;;10.80;;
5684;SDS011;2865;53.114;9.130;2024-01-30T10:17:10;16.83;;;11.60;;
5684;SDS011;2865;53.114;9.130;2024-01-30T10:19:35;11.20;;;10.03;;
5684;SDS011;2865;53.114;9.130;2024-01-30T10:22:00;12.77;;;9.80;;
5684;SDS011;2865;53.114;9.130;2024-01-30T10:24:26;14.67;;;10.57;;
5684;SDS011;2865;53.114;9.130;2024-01-30T10:26:51;13.10;;;10.17;;
5684;SDS011;2865;53.114;9.130;2024-01-30T10:29:17;11.97;;;9.73;;
5684;SDS011;2865;53.114;9.130;2024-01-30T10:31:42;14.03;;;10.40;;
5684;SDS011;2865;53.114;9.130;2024-01-30T10:34:08;14.20;;;10.20;;
5684;SDS011;2865;53.114;9.130;2024-01-30T10:36:33;16.17;;;9.87;;
5684;SDS011;2865;53.114;9.130;2024-01-30T10:38:59;14.37;;;10.73;;
5684;SDS011;2865;53.114;9.130;2024-01-30T10:41:26;12.70;;;9.73;;
5684;SDS011;2865;53.114;9.130;2024-01-30T10:43:50;12.67;;;10.63;;
5684;SDS011;2865;53.114;9.130;2024-01-30T10:46:19;16.70;;;10.53;;
5684;SDS011;2865;53.114;9.130;2024-01-30T10:48:43;17.43;;;10.37;;
5684;SDS011;2865;53.114;9.130;2024-01-30T10:51:10;18.40;;;10.23;;
5684;SDS011;2865;53.114;9.130;2024-01-30T10:53:35;11.60;;;9.97;;
5684;SDS011;2865;53.114;9.130;2024-01-30T10:56:01;10.93;;;9.47;;
5684;SDS011;2865;53.114;9.130;2024-01-30T10:58:26;12.10;;;9.80;;
5684;SDS011;2865;53.114;9.130;2024-01-30T11:00:51;14.00;;;10.20;;
5684;SDS011;2865;53.114;9.130;2024-01-30T11:03:17;13.87;;;9.63;;
5684;SDS011;2865;53.114;9.130;2024-01-30T11:05:42;11.93;;;9.83;;
5684;SDS011;2865;53.114;9.130;2024-01-30T11:08:10;12.00;;;9.73;;
5684;SDS011;2865;53.114;9.130;2024-01-30T11:10:43;14.87;;;9.90;;
5684;SDS011;2865;53.114;9.130;2024-01-30T11:13:09;13.70;;;9.90;;
5684;SDS011;2865;53.114;9.130;2024-01-30T11:15:26;10.87;;;9.77;;
5684;SDS011;2865;53.114;9.130;2024-01-30T11:17:51;13.90;;;11.03;;
5684;SDS011;2865;53.114;9.130;2024-01-30T11:20:18;10.90;;;9.30;;
5684;SDS011;2865;53.114;9.130;2024-01-30T11:22:45;11.83;;;8.83;;
5684;SDS011;2865;53.114;9.130;2024-01-30T11:25:11;11.30;;;9.47;;
5684;SDS011;2865;53.114;9.130;2024-01-30T11:27:36;13.00;;;10.07;;
5684;SDS011;2865;53.114;9.130;2024-01-30T11:30:02;13.53;;;8.73;;
5684;SDS011;2865;53.114;9.130;2024-01-30T11:32:28;12.63;;;9.23;;
5684;SDS011;2865;53.114;9.130;2024-01-30T11:34:54;10.20;;;8.77;;
5684;SDS011;2865;53.114;9.130;2024-01-30T11:37:19;14.73;;;10.87;;
5684;SDS011;2865;53.114;9.130;2024-01-30T11:39:44;13.37;;;10.00;;
5684;SDS011;2865;53.114;9.130;2024-01-30T11:42:09;12.40;;;9.00;;
5684;SDS011;2865;53.114;9.130;2024-01-30T11:44:35;9.50;;;8.50;;
5684;SDS011;2865;53.114;9.130;2024-01-30T11:47:00;11.70;;;9.33;;
5684;SDS011;2865;53.114;9.130;2024-01-30T11:49:26;12.10;;;10.63;;
5684;SDS011;2865;53.114;9.130;2024-01-30T11:51:51;14.30;;;9.10;;
5684;SDS011;2865;53.114;9.130;2024-01-30T11:54:17;10.13;;;8.67;;
5684;SDS011;2865;53.114;9.130;2024-01-30T11:56:42;11.27;;;8.63;;
5684;SDS011;2865;53.114;9.130;2024-01-30T11:59:08;15.03;;;9.70;;
5684;SDS011;2865;53.114;9.130;2024-01-30T12:01:33;11.27;;;9.20;;
5684;SDS011;2865;53.114;9.130;2024-01-30T12:03:59;9.80;;;8.73;;
5684;SDS011;2865;53.114;9.130;2024-01-30T12:06:24;12.23;;;9.23;;
5684;SDS011;2865;53.114;9.130;2024-01-30T12:09:02;11.43;;;8.60;;
5684;SDS011;2865;53.114;9.130;2024-01-30T12:11:27;12.50;;;8.60;;
5684;SDS011;2865;53.114;9.130;2024-01-30T12:13:53;10.90;;;7.63;;
5684;SDS011;2865;53.114;9.130;2024-01-30T12:16:18;9.67;;;8.50;;
5684;SDS011;2865;53.114;9.130;2024-01-30T12:18:43;9.50;;;8.50;;
5684;SDS011;2865;53.114;9.130;2024-01-30T12:21:09;10.40;;;8.43;;
5684;SDS011;2865;53.114;9.130;2024-01-30T12:23:34;13.57;;;10.40;;
5684;SDS011;2865;53.114;9.130;2024-01-30T12:26:00;10.60;;;8.50;;
5684;SDS011;2865;53.114;9.130;2024-01-30T12:28:26;12.23;;;7.80;;
5684;SDS011;2865;53.114;9.130;2024-01-30T12:30:55;10.03;;;8.67;;
5684;SDS011;2865;53.114;9.130;2024-01-30T12:33:17;9.83;;;8.80;;
5684;SDS011;2865;53.114;9.130;2024-01-30T12:35:45;9.30;;;8.27;;
5684;SDS011;2865;53.114;9.130;2024-01-30T12:38:07;11.20;;;8.97;;
5684;SDS011;2865;53.114;9.130;2024-01-30T12:40:33;12.53;;;9.17;;
5684;SDS011;2865;53.114;9.130;2024-01-30T12:42:58;9.60;;;8.60;;
5684;SDS011;2865;53.114;9.130;2024-01-30T12:45:24;11.10;;;9.27;;
5684;SDS011;2865;53.114;9.130;2024-01-30T12:47:49;10.60;;;9.17;;
5684;SDS011;2865;53.114;9.130;2024-01-30T12:50:15;13.97;;;9.00;;
5684;SDS011;2865;53.114;9.130;2024-01-30T12:52:42;10.80;;;9.00;;
5684;SDS011;2865;53.114;9.130;2024-01-30T12:55:07;10.17;;;8.17;;
5684;SDS011;2865;53.114;9.130;2024-01-30T12:57:33;9.93;;;8.60;;
5684;SDS011;2865;53.114;9.130;2024-01-30T12:59:58;11.20;;;8.67;;
5684;SDS011;2865;53.114;9.130;2024-01-30T13:02:23;10.63;;;8.10;;
5684;SDS011;2865;53.114;9.130;2024-01-30T13:04:49;10.53;;;8.63;;
5684;SDS011;2865;53.114;9.130;2024-01-30T13:07:14;11.27;;;8.70;;
5684;SDS011;2865;53.114;9.130;2024-01-30T13:09:39;11.93;;;9.00;;
5684;SDS011;2865;53.114;9.130;2024-01-30T13:12:05;11.00;;;9.20;;
5684;SDS011;2865;53.114;9.130;2024-01-30T13:14:30;13.87;;;10.50;;
5684;SDS011;2865;53.114;9.130;2024-01-30T13:16:56;10.30;;;9.20;;
5684;SDS011;2865;53.114;9.130;2024-01-30T13:19:21;9.80;;;8.27;;
5684;SDS011;2865;53.114;9.130;2024-01-30T13:21:47;11.63;;;8.87;;
5684;SDS011;2865;53.114;9.130;2024-01-30T13:24:12;10.90;;;8.40;;
5684;SDS011;2865;53.114;9.130;2024-01-30T13:26:37;11.47;;;8.13;;
5684;SDS011;2865;53.114;9.130;2024-01-30T13:29:03;12.40;;;8.93;;
5684;SDS011;2865;53.114;9.130;2024-01-30T13:31:28;14.70;;;9.83;;
5684;SDS011;2865;53.114;9.130;2024-01-30T13:33:54;12.57;;;8.73;;
5684;SDS011;2865;53.114;9.130;2024-01-30T13:36:19;10.20;;;8.07;;
5684;SDS011;2865;53.114;9.130;2024-01-30T13:38:44;11.63;;;8.10;;
5684;SDS011;2865;53.114;9.130;2024-01-30T13:41:10;14.50;;;9.47;;
5684;SDS011;2865;53.114;9.130;2024-01-30T13:43:35;10.93;;;8.70;;
5684;SDS011;2865;53.114;9.130;2024-01-30T13:46:01;11.13;;;8.67;;
5684;SDS011;2865;53.114;9.130;2024-01-30T13:48:26;10.50;;;8.20;;
5684;SDS011;2865;53.114;9.130;2024-01-30T13:50:51;8.20;;;7.40;;
5684;SDS011;2865;53.114;9.130;2024-01-30T13:53:17;10.00;;;7.27;;
5684;SDS011;2865;53.114;9.130;2024-01-30T13:55:42;10.27;;;8.87;;
5684;SDS011;2865;53.114;9.130;2024-01-30T13:58:07;12.00;;;8.37;;
5684;SDS011;2865;53.114;9.130;2024-01-30T14:00:33;10.63;;;7.57;;
5684;SDS011;2865;53.114;9.130;2024-01-30T14:02:58;8.90;;;7.60;;
5684;SDS011;2865;53.114;9.130;2024-01-30T14:05:24;13.03;;;8.50;;
5684;SDS011;2865;53.114;9.130;2024-01-30T14:07:49;14.10;;;8.83;;
5684;SDS011;2865;53.114;9.130;2024-01-30T14:10:14;10.50;;;7.90;;
5684;SDS011;2865;53.114;9.130;2024-01-30T14:12:41;8.83;;;7.93;;
5684;SDS011;2865;53.114;9.130;2024-01-30T14:15:07;15.63;;;8.83;;
5684;SDS011;2865;53.114;9.130;2024-01-30T14:17:32;13.83;;;8.20;;
5684;SDS011;2865;53.114;9.130;2024-01-30T14:19:58;11.03;;;7.93;;
5684;SDS011;2865;53.114;9.130;2024-01-30T14:22:23;13.83;;;8.80;;
5684;SDS011;2865;53.114;9.130;2024-01-30T14:24:48;13.83;;;9.20;;
5684;SDS011;2865;53.114;9.130;2024-01-30T14:27:14;11.17;;;8.27;;
5684;SDS011;2865;53.114;9.130;2024-01-30T14:29:39;10.83;;;9.73;;
5684;SDS011;2865;53.114;9.130;2024-01-30T14:32:05;10.03;;;8.00;;
5684;SDS011;2865;53.114;9.130;2024-01-30T14:34:30;15.00;;;9.20;;
5684;SDS011;2865;53.114;9.130;2024-01-30T14:36:56;15.10;;;8.50;;
5684;SDS011;2865;53.114;9.130;2024-01-30T14:39:21;15.80;;;8.83;;
5684;SDS011;2865;53.114;9.130;2024-01-30T14:41:47;14.17;;;8.90;;
5684;SDS011;2865;53.114;9.130;2024-01-30T14:44:12;13.00;;;10.00;;